createdAt,value
2018-01-29T00:00:03.540Z,16.43
2018-01-29T00:02:29.295Z,11.30
2018-01-29T00:04:55.053Z,16.67
2018-01-29T00:07:20.809Z,12.40
2018-01-29T00:09:46.571Z,13.87
2018-01-29T00:12:12.335Z,14.50
2018-01-29T00:14:38.103Z,10.87
2018-01-29T00:17:03.871Z,17.87
2018-01-29T00:19:29.639Z,17.20
2018-01-29T00:21:55.405Z,20.03
2018-01-29T00:24:21.172Z,21.50
2018-01-29T00:26:46.951Z,20.60
2018-01-29T00:29:12.707Z,27.43
2018-01-29T00:31:38.484Z,20.77
2018-01-29T00:34:04.256Z,18.90
2018-01-29T00:36:30.020Z,15.40
2018-01-29T00:38:55.785Z,15.00
2018-01-29T00:41:21.547Z,26.57
2018-01-29T00:43:47.300Z,20.70
2018-01-29T00:46:13.054Z,18.63
2018-01-29T00:48:38.826Z,17.10
2018-01-29T00:51:04.599Z,18.27
2018-01-29T00:53:30.371Z,13.33
2018-01-29T00:55:56.159Z,18.43
2018-01-29T00:58:21.924Z,22.83
2018-01-29T01:00:47.692Z,22.83
2018-01-29T01:03:13.464Z,25.23
2018-01-29T01:05:39.227Z,25.00
2018-01-29T01:08:04.992Z,15.20
2018-01-29T01:10:30.760Z,23.77
2018-01-29T01:12:56.506Z,24.40
2018-01-29T01:15:22.262Z,23.70
2018-01-29T01:17:48.011Z,18.83
2018-01-29T01:20:13.781Z,19.57
2018-01-29T01:22:39.552Z,18.70
2018-01-29T01:25:05.328Z,18.53
2018-01-29T01:27:31.094Z,21.03
2018-01-29T01:29:56.891Z,25.73
2018-01-29T01:32:22.651Z,21.53
2018-01-29T01:34:48.429Z,23.23
2018-01-29T01:37:14.191Z,24.10
2018-01-29T01:39:39.982Z,24.50
2018-01-29T01:42:05.760Z,23.60
2018-01-29T01:44:31.523Z,19.20
2018-01-29T01:46:57.294Z,18.63
2018-01-29T01:49:29.264Z,17.77
2018-01-29T01:51:55.043Z,17.60
2018-01-29T01:54:20.824Z,27.27
2018-01-29T01:56:46.597Z,22.57
2018-01-29T01:59:12.371Z,23.73
2018-01-29T02:01:38.147Z,22.63
2018-01-29T02:04:03.920Z,21.17
2018-01-29T02:06:29.703Z,14.00
2018-01-29T02:08:55.467Z,19.33
2018-01-29T02:11:21.241Z,22.27
2018-01-29T02:13:47.015Z,21.80
2018-01-29T02:16:12.802Z,21.73
2018-01-29T02:18:38.564Z,25.50
2018-01-29T02:21:04.326Z,23.73
2018-01-29T02:23:30.087Z,17.57
2018-01-29T02:25:55.844Z,17.00
2018-01-29T02:28:21.619Z,14.17
2018-01-29T02:30:47.416Z,15.93
2018-01-29T02:33:13.207Z,12.93
2018-01-29T02:35:38.966Z,12.37
2018-01-29T02:38:04.744Z,15.90
2018-01-29T02:40:30.518Z,15.17
2018-01-29T02:42:56.313Z,19.47
2018-01-29T02:45:22.095Z,16.33
2018-01-29T02:47:47.884Z,16.77
2018-01-29T02:50:13.660Z,18.00
2018-01-29T02:52:39.465Z,13.43
2018-01-29T02:55:05.240Z,15.03
2018-01-29T02:57:31.035Z,14.27
2018-01-29T02:59:56.815Z,14.07
2018-01-29T03:02:22.587Z,16.23
2018-01-29T03:04:48.373Z,12.77
2018-01-29T03:07:14.147Z,14.97
2018-01-29T03:09:39.939Z,13.33
2018-01-29T03:12:05.716Z,14.20
2018-01-29T03:14:31.505Z,12.90
2018-01-29T03:16:57.275Z,12.63
2018-01-29T03:19:23.046Z,15.30
2018-01-29T03:21:48.820Z,13.67
2018-01-29T03:24:14.591Z,14.40
2018-01-29T03:26:40.363Z,16.60
2018-01-29T03:29:06.148Z,19.07
2018-01-29T03:31:31.911Z,15.63
2018-01-29T03:33:57.680Z,16.40
2018-01-29T03:36:23.443Z,17.27
2018-01-29T03:38:49.214Z,14.70
2018-01-29T03:41:14.974Z,13.63
2018-01-29T03:43:40.744Z,15.43
2018-01-29T03:46:06.530Z,15.27
2018-01-29T03:48:32.304Z,18.03
2018-01-29T03:50:58.066Z,17.30
2018-01-29T03:53:23.832Z,14.63
2018-01-29T03:55:49.575Z,16.20
2018-01-29T03:58:15.323Z,16.93
2018-01-29T04:00:41.102Z,15.57
2018-01-29T04:03:06.869Z,13.90
2018-01-29T04:05:32.656Z,12.57
2018-01-29T04:07:58.427Z,15.67
2018-01-29T04:10:24.209Z,15.43
2018-01-29T04:12:49.973Z,11.87
2018-01-29T04:15:15.775Z,17.00
2018-01-29T04:17:41.546Z,12.20
2018-01-29T04:20:07.340Z,14.73
2018-01-29T04:22:33.113Z,10.73
2018-01-29T04:24:58.893Z,12.60
2018-01-29T04:27:24.724Z,13.10
2018-01-29T04:29:50.512Z,14.80
2018-01-29T04:32:16.275Z,14.33
2018-01-29T04:34:42.065Z,17.10
2018-01-29T04:37:07.843Z,14.57
2018-01-29T04:39:33.604Z,13.23
2018-01-29T04:41:59.377Z,12.10
2018-01-29T04:44:25.158Z,9.70
2018-01-29T04:46:50.942Z,20.60
2018-01-29T04:49:16.699Z,14.33
2018-01-29T04:51:42.460Z,10.87
2018-01-29T04:54:08.207Z,12.57
2018-01-29T04:56:36.975Z,13.30
2018-01-29T04:59:02.745Z,16.75
2018-01-29T05:01:28.512Z,13.47
2018-01-29T05:03:54.277Z,12.27
2018-01-29T05:06:20.040Z,15.20
2018-01-29T05:08:45.800Z,13.90
2018-01-29T05:11:11.554Z,14.20
2018-01-29T05:13:37.301Z,10.93
2018-01-29T05:16:03.060Z,11.73
2018-01-29T05:18:28.819Z,11.77
2018-01-29T05:20:54.579Z,11.50
2018-01-29T05:23:20.327Z,13.23
2018-01-29T05:25:46.103Z,12.03
2018-01-29T05:28:11.847Z,13.70
2018-01-29T05:30:37.631Z,12.07
2018-01-29T05:33:03.393Z,12.07
2018-01-29T05:35:29.935Z,15.47
2018-01-29T05:40:57.235Z,12.95
2018-01-29T05:43:22.999Z,15.60
2018-01-29T05:45:48.771Z,14.00
2018-01-29T05:48:14.557Z,13.13
2018-01-29T05:50:40.315Z,15.93
2018-01-29T05:53:06.067Z,15.07
2018-01-29T05:55:31.823Z,12.47
2018-01-29T05:57:57.603Z,10.20
2018-01-29T06:00:23.360Z,10.00
2018-01-29T06:02:49.112Z,11.87
2018-01-29T06:05:14.873Z,11.30
2018-01-29T06:07:40.631Z,11.13
2018-01-29T06:10:06.383Z,13.40
2018-01-29T06:12:32.136Z,13.53
2018-01-29T06:14:57.880Z,10.57
2018-01-29T06:17:23.653Z,9.53
2018-01-29T06:19:49.388Z,14.43
2018-01-29T06:22:15.143Z,11.60
2018-01-29T06:24:40.895Z,11.47
2018-01-29T06:27:06.650Z,11.60
2018-01-29T06:29:32.407Z,13.60
2018-01-29T06:31:58.166Z,10.83
2018-01-29T06:34:23.952Z,16.70
2018-01-29T06:36:49.719Z,11.03
2018-01-29T06:39:15.479Z,9.40
2018-01-29T06:41:41.214Z,11.13
2018-01-29T06:44:06.970Z,12.30
2018-01-29T06:46:32.715Z,8.30
2018-01-29T06:48:58.483Z,11.43
2018-01-29T06:51:24.245Z,13.43
2018-01-29T06:53:50.023Z,8.67
2018-01-29T06:56:16.639Z,13.03
2018-01-29T06:58:42.394Z,9.88
2018-01-29T07:01:08.148Z,10.73
2018-01-29T07:03:33.895Z,10.90
2018-01-29T07:05:59.635Z,13.00
2018-01-29T07:08:25.403Z,8.60
2018-01-29T07:10:51.154Z,11.50
2018-01-29T07:13:16.912Z,8.80
2018-01-29T07:15:42.667Z,11.53
2018-01-29T07:18:08.424Z,6.30
2018-01-29T07:20:34.175Z,12.63
2018-01-29T07:22:59.919Z,8.37
2018-01-29T07:25:25.665Z,10.07
2018-01-29T07:27:51.420Z,9.77
2018-01-29T07:30:17.202Z,8.33
2018-01-29T07:32:42.967Z,9.17
2018-01-29T07:35:08.734Z,10.93
2018-01-29T07:37:34.505Z,9.60
2018-01-29T07:40:00.267Z,8.10
2018-01-29T07:42:26.025Z,12.87
2018-01-29T07:44:51.792Z,10.60
2018-01-29T07:47:17.560Z,7.27
2018-01-29T07:49:43.343Z,9.87
2018-01-29T07:52:09.106Z,7.67
2018-01-29T07:54:34.877Z,8.30
2018-01-29T07:57:00.652Z,10.37
2018-01-29T07:59:26.436Z,8.93
2018-01-29T08:01:52.207Z,11.43
2018-01-29T08:04:17.983Z,11.07
2018-01-29T08:06:43.756Z,12.87
2018-01-29T08:09:09.519Z,12.17
2018-01-29T08:11:35.292Z,8.50
2018-01-29T08:14:01.065Z,8.10
2018-01-29T08:16:26.869Z,8.50
2018-01-29T08:18:52.623Z,11.80
2018-01-29T08:21:18.401Z,9.30
2018-01-29T08:23:44.163Z,11.40
2018-01-29T08:26:09.944Z,6.67
2018-01-29T08:28:35.719Z,11.43
2018-01-29T08:31:01.500Z,8.90
2018-01-29T08:33:27.264Z,11.40
2018-01-29T08:35:53.105Z,8.77
2018-01-29T08:38:18.843Z,9.93
2018-01-29T08:40:44.651Z,8.43
2018-01-29T08:43:10.424Z,8.33
2018-01-29T08:45:36.204Z,11.60
2018-01-29T08:48:01.978Z,10.33
2018-01-29T08:50:27.744Z,10.10
2018-01-29T08:52:53.522Z,7.10
2018-01-29T08:55:19.285Z,7.37
2018-01-29T08:57:45.060Z,6.70
2018-01-29T09:00:10.832Z,7.53
2018-01-29T09:02:36.620Z,7.80
2018-01-29T09:05:02.387Z,7.50
2018-01-29T09:07:28.167Z,9.37
2018-01-29T09:09:53.933Z,8.37
2018-01-29T09:12:19.716Z,8.90
2018-01-29T09:14:45.488Z,9.90
2018-01-29T09:17:11.244Z,6.33
2018-01-29T09:19:37.008Z,9.00
2018-01-29T09:22:02.780Z,6.97
2018-01-29T09:24:28.557Z,9.87
2018-01-29T09:26:54.327Z,10.23
2018-01-29T09:29:20.119Z,12.83
2018-01-29T09:31:45.876Z,7.40
2018-01-29T09:34:11.633Z,10.33
2018-01-29T09:36:37.384Z,8.70
2018-01-29T09:39:03.168Z,8.83
2018-01-29T09:41:28.920Z,10.50
2018-01-29T09:43:54.684Z,6.87
2018-01-29T09:46:20.456Z,7.10
2018-01-29T09:48:46.231Z,11.87
2018-01-29T09:51:11.979Z,12.17
2018-01-29T09:53:37.751Z,9.23
2018-01-29T09:56:03.516Z,9.73
2018-01-29T09:58:29.292Z,8.73
2018-01-29T10:00:55.052Z,8.80
2018-01-29T10:03:20.813Z,7.27
2018-01-29T10:05:46.609Z,10.80
2018-01-29T10:08:12.368Z,7.47
2018-01-29T10:10:38.127Z,8.10
2018-01-29T10:13:03.883Z,6.73
2018-01-29T10:15:29.635Z,9.47
2018-01-29T10:17:55.381Z,8.93
2018-01-29T10:20:21.143Z,5.97
2018-01-29T10:22:46.907Z,6.10
2018-01-29T10:25:12.667Z,7.30
2018-01-29T10:27:38.423Z,5.50
2018-01-29T10:30:04.199Z,5.70
2018-01-29T10:32:29.955Z,5.53
2018-01-29T10:34:55.716Z,6.10
2018-01-29T10:37:21.483Z,7.70
2018-01-29T10:39:47.241Z,4.50
2018-01-29T10:42:12.995Z,3.60
2018-01-29T10:44:38.740Z,4.60
2018-01-29T10:47:04.499Z,3.33
2018-01-29T10:49:30.242Z,2.87
2018-01-29T10:51:56.023Z,3.33
2018-01-29T10:54:21.786Z,4.07
2018-01-29T10:56:47.549Z,2.93
2018-01-29T10:59:13.311Z,3.57
2018-01-29T11:01:45.230Z,2.13
2018-01-29T11:04:11.004Z,2.80
2018-01-29T11:06:36.751Z,2.43
2018-01-29T11:09:02.507Z,1.87
2018-01-29T11:11:28.262Z,1.80
2018-01-29T11:13:54.003Z,1.67
2018-01-29T11:16:19.747Z,2.87
2018-01-29T11:18:45.514Z,2.57
2018-01-29T11:21:11.283Z,1.40
2018-01-29T11:23:37.044Z,1.57
2018-01-29T11:26:02.799Z,1.37
2018-01-29T11:28:28.555Z,2.30
2018-01-29T11:30:54.324Z,2.07
2018-01-29T11:33:20.095Z,1.30
2018-01-29T11:35:45.856Z,2.90
2018-01-29T11:38:11.617Z,2.27
2018-01-29T11:40:37.379Z,1.50
2018-01-29T11:43:03.159Z,1.13
2018-01-29T11:45:28.921Z,2.40
2018-01-29T11:47:54.684Z,1.40
2018-01-29T11:50:20.445Z,1.43
2018-01-29T11:52:46.205Z,2.00
2018-01-29T11:55:11.969Z,1.60
2018-01-29T11:57:37.749Z,2.03
2018-01-29T12:00:03.517Z,1.83
2018-01-29T12:02:29.274Z,1.40
2018-01-29T12:04:55.043Z,1.70
2018-01-29T12:07:20.848Z,1.97
2018-01-29T12:09:46.595Z,2.40
2018-01-29T12:12:12.356Z,2.47
2018-01-29T12:14:38.136Z,3.43
2018-01-29T12:17:03.909Z,10.67
2018-01-29T12:19:29.679Z,4.43
2018-01-29T12:21:55.454Z,2.40
2018-01-29T12:24:21.236Z,2.33
2018-01-29T12:26:47.000Z,3.10
2018-01-29T12:29:12.781Z,1.43
2018-01-29T12:31:38.534Z,1.40
2018-01-29T12:34:04.276Z,1.30
2018-01-29T12:36:30.067Z,3.00
2018-01-29T12:38:55.988Z,1.53
2018-01-29T12:41:21.762Z,2.23
2018-01-29T12:43:47.523Z,1.67
2018-01-29T12:46:13.271Z,1.53
2018-01-29T12:48:39.220Z,1.13
2018-01-29T12:51:04.991Z,2.43
2018-01-29T12:53:30.751Z,3.43
2018-01-29T12:55:56.524Z,2.53
2018-01-29T12:58:22.292Z,2.97
2018-01-29T13:00:48.059Z,2.60
2018-01-29T13:03:13.819Z,1.50
2018-01-29T13:05:39.582Z,3.17
2018-01-29T13:08:05.331Z,2.20
2018-01-29T13:10:31.093Z,2.97
2018-01-29T13:12:56.852Z,3.47
2018-01-29T13:15:22.612Z,1.93
2018-01-29T13:17:48.380Z,3.70
2018-01-29T13:20:14.143Z,3.57
2018-01-29T13:22:39.891Z,3.83
2018-01-29T13:25:05.634Z,3.57
2018-01-29T13:27:31.399Z,1.30
2018-01-29T13:29:57.180Z,3.10
2018-01-29T13:32:22.946Z,1.83
2018-01-29T13:34:48.732Z,4.53
2018-01-29T13:37:14.520Z,2.10
2018-01-29T13:39:40.284Z,5.70
2018-01-29T13:42:06.059Z,3.07
2018-01-29T13:44:31.811Z,3.27
2018-01-29T13:46:57.583Z,5.67
2018-01-29T13:49:23.336Z,2.97
2018-01-29T13:51:49.103Z,4.20
2018-01-29T13:54:14.867Z,6.03
2018-01-29T13:56:40.623Z,5.80
2018-01-29T13:59:06.417Z,5.40
2018-01-29T14:01:32.187Z,6.63
2018-01-29T14:03:57.953Z,6.73
2018-01-29T14:06:23.779Z,4.60
2018-01-29T14:08:49.538Z,6.23
2018-01-29T14:11:15.327Z,4.73
2018-01-29T14:13:41.087Z,4.57
2018-01-29T14:16:06.854Z,5.97
2018-01-29T14:18:32.635Z,6.67
2018-01-29T14:20:58.393Z,6.77
2018-01-29T14:23:24.155Z,5.37
2018-01-29T14:25:49.967Z,4.57
2018-01-29T14:28:15.699Z,6.20
2018-01-29T14:30:41.472Z,5.40
2018-01-29T14:33:07.252Z,4.73
2018-01-29T14:35:33.009Z,5.77
2018-01-29T14:37:58.784Z,4.07
2018-01-29T14:40:24.544Z,3.23
2018-01-29T14:42:50.331Z,4.77
2018-01-29T14:45:16.086Z,5.80
2018-01-29T14:47:41.852Z,3.43
2018-01-29T14:50:07.635Z,4.87
2018-01-29T14:52:33.399Z,7.40
2018-01-29T14:54:59.176Z,5.20
2018-01-29T14:57:24.931Z,4.43
2018-01-29T14:59:50.704Z,7.03
2018-01-29T15:02:16.472Z,6.53
2018-01-29T15:04:42.245Z,8.83
2018-01-29T15:07:08.015Z,5.23
2018-01-29T15:09:33.771Z,3.67
2018-01-29T15:11:59.527Z,5.70
2018-01-29T15:14:25.307Z,7.23
2018-01-29T15:16:51.075Z,3.97
2018-01-29T15:19:16.857Z,6.57
2018-01-29T15:21:42.619Z,7.23
2018-01-29T15:24:08.403Z,5.97
2018-01-29T15:26:34.175Z,5.93
2018-01-29T15:28:59.932Z,6.83
2018-01-29T15:31:25.698Z,7.13
2018-01-29T15:33:51.455Z,5.07
2018-01-29T15:36:17.207Z,5.17
2018-01-29T15:38:42.943Z,7.57
2018-01-29T15:41:08.707Z,5.73
2018-01-29T15:43:34.459Z,4.80
2018-01-29T15:46:00.211Z,5.87
2018-01-29T15:48:25.960Z,6.33
2018-01-29T15:50:51.742Z,5.03
2018-01-29T15:53:17.518Z,3.83
2018-01-29T15:55:43.312Z,5.77
2018-01-29T15:58:09.054Z,6.70
2018-01-29T16:00:34.859Z,6.90
2018-01-29T16:03:00.607Z,6.63
2018-01-29T16:05:26.373Z,5.90
2018-01-29T16:07:52.146Z,7.70
2018-01-29T16:10:18.032Z,6.00
2018-01-29T16:12:43.855Z,5.37
2018-01-29T16:15:09.600Z,6.67
2018-01-29T16:17:35.360Z,6.13
2018-01-29T16:20:01.112Z,6.67
2018-01-29T16:22:26.871Z,5.10
2018-01-29T16:24:52.626Z,9.37
2018-01-29T16:27:18.394Z,6.23
2018-01-29T16:29:44.182Z,5.00
2018-01-29T16:32:09.951Z,6.20
2018-01-29T16:34:35.706Z,5.67
2018-01-29T16:37:01.471Z,5.97
2018-01-29T16:39:27.220Z,5.63
2018-01-29T16:41:53.040Z,5.37
2018-01-29T16:44:18.808Z,4.27
2018-01-29T16:46:44.567Z,5.53
2018-01-29T16:49:10.315Z,3.97
2018-01-29T16:51:36.092Z,5.50
2018-01-29T16:54:01.851Z,5.77
2018-01-29T16:56:27.654Z,5.67
2018-01-29T16:58:53.387Z,6.23
2018-01-29T17:01:19.164Z,5.10
2018-01-29T17:03:44.931Z,5.43
2018-01-29T17:06:10.695Z,9.03
2018-01-29T17:08:36.471Z,12.23
2018-01-29T17:11:02.220Z,8.83
2018-01-29T17:13:27.984Z,9.27
2018-01-29T17:15:53.747Z,8.50
2018-01-29T17:18:19.514Z,9.10
2018-01-29T17:20:45.276Z,7.70
2018-01-29T17:23:11.043Z,9.57
2018-01-29T17:25:36.827Z,9.57
2018-01-29T17:28:02.607Z,11.00
2018-01-29T17:30:28.403Z,8.70
2018-01-29T17:32:54.169Z,12.00
2018-01-29T17:35:19.927Z,9.20
2018-01-29T17:37:45.707Z,11.30
2018-01-29T17:40:11.463Z,10.03
2018-01-29T17:42:37.232Z,13.07
2018-01-29T17:45:03.022Z,14.00
2018-01-29T17:47:28.784Z,11.13
2018-01-29T17:49:54.563Z,11.63
2018-01-29T17:52:20.314Z,9.70
2018-01-29T17:54:46.090Z,10.83
2018-01-29T17:57:11.844Z,10.30
2018-01-29T17:59:37.607Z,10.33
2018-01-29T18:02:03.376Z,9.60
2018-01-29T18:04:29.168Z,9.43
2018-01-29T18:06:54.927Z,9.43
2018-01-29T18:09:20.720Z,13.17
2018-01-29T18:11:46.484Z,12.20
2018-01-29T18:14:12.272Z,9.03
2018-01-29T18:16:38.059Z,9.73
2018-01-29T18:19:03.839Z,9.97
2018-01-29T18:21:29.599Z,11.83
2018-01-29T18:23:55.359Z,13.07
2018-01-29T18:26:21.144Z,13.93
2018-01-29T18:28:46.943Z,9.80
2018-01-29T18:31:12.760Z,9.93
2018-01-29T18:33:38.528Z,11.97
2018-01-29T18:36:04.312Z,13.53
2018-01-29T18:38:30.084Z,14.33
2018-01-29T18:40:55.863Z,14.30
2018-01-29T18:43:21.644Z,12.63
2018-01-29T18:45:47.411Z,13.53
2018-01-29T18:48:13.180Z,17.97
2018-01-29T18:50:38.945Z,20.17
2018-01-29T18:53:04.755Z,13.67
2018-01-29T18:55:30.540Z,15.37
2018-01-29T18:57:56.319Z,16.73
2018-01-29T19:00:22.076Z,19.83
2018-01-29T19:02:47.847Z,18.13
2018-01-29T19:05:13.615Z,18.17
2018-01-29T19:07:39.395Z,21.57
2018-01-29T19:10:05.138Z,17.87
2018-01-29T19:12:30.891Z,21.07
2018-01-29T19:14:56.656Z,16.60
2018-01-29T19:17:22.426Z,18.20
2018-01-29T19:19:48.260Z,22.60
2018-01-29T19:22:14.027Z,19.47
2018-01-29T19:24:39.778Z,16.90
2018-01-29T19:27:05.550Z,21.07
2018-01-29T19:29:31.358Z,19.13
2018-01-29T19:31:57.100Z,23.43
2018-01-29T19:34:22.850Z,12.63
2018-01-29T19:36:48.758Z,17.93
2018-01-29T19:39:14.515Z,18.67
2018-01-29T19:41:40.282Z,19.67
2018-01-29T19:44:06.044Z,15.83
2018-01-29T19:46:31.811Z,16.77
2018-01-29T19:48:57.586Z,19.90
2018-01-29T19:51:23.332Z,24.97
2018-01-29T19:53:49.091Z,21.60
2018-01-29T19:56:14.847Z,24.10
2018-01-29T19:58:40.619Z,24.53
2018-01-29T20:01:06.399Z,19.67
2018-01-29T20:03:32.182Z,17.60
2018-01-29T20:05:58.114Z,17.80
2018-01-29T20:08:23.875Z,18.93
2018-01-29T20:10:49.631Z,15.83
2018-01-29T20:13:15.405Z,12.07
2018-01-29T20:15:41.171Z,20.63
2018-01-29T20:18:06.960Z,20.20
2018-01-29T20:20:32.724Z,14.67
2018-01-29T20:22:58.491Z,15.33
2018-01-29T20:25:24.258Z,20.63
2018-01-29T20:27:50.035Z,9.83
2018-01-29T20:30:15.871Z,16.70
2018-01-29T20:32:41.627Z,10.53
2018-01-29T20:35:07.402Z,12.63
2018-01-29T20:37:33.159Z,16.93
2018-01-29T20:39:58.931Z,21.17
2018-01-29T20:42:24.746Z,15.47
2018-01-29T20:44:50.503Z,18.17
2018-01-29T20:47:16.275Z,22.60
2018-01-29T20:49:42.038Z,21.20
2018-01-29T20:52:07.819Z,21.27
2018-01-29T20:54:33.579Z,21.60
2018-01-29T20:56:59.343Z,23.57
2018-01-29T20:59:25.128Z,23.03
2018-01-29T21:01:50.883Z,25.40
2018-01-29T21:04:16.652Z,28.13
2018-01-29T21:06:42.456Z,17.37
2018-01-29T21:09:08.182Z,17.13
2018-01-29T21:11:33.959Z,22.10
2018-01-29T21:13:59.727Z,22.10
2018-01-29T21:16:25.498Z,18.40
2018-01-29T21:18:51.247Z,20.50
2018-01-29T21:21:16.998Z,19.30
2018-01-29T21:23:42.751Z,22.47
2018-01-29T21:26:08.527Z,17.13
2018-01-29T21:28:34.279Z,19.00
2018-01-29T21:31:00.060Z,20.13
2018-01-29T21:33:25.810Z,24.27
2018-01-29T21:35:51.591Z,24.60
2018-01-29T21:38:17.352Z,23.87
2018-01-29T21:40:43.123Z,23.60
2018-01-29T21:43:08.888Z,26.67
2018-01-29T21:45:34.704Z,25.53
2018-01-29T21:48:02.105Z,22.60
2018-01-29T21:50:27.952Z,22.62
2018-01-29T21:52:53.716Z,22.37
2018-01-29T21:55:19.471Z,17.57
2018-01-29T21:57:45.251Z,17.03
2018-01-29T22:00:11.010Z,18.00
2018-01-29T22:02:36.869Z,15.83
2018-01-29T22:05:02.630Z,13.27
2018-01-29T22:07:28.556Z,16.20
2018-01-29T22:09:54.331Z,16.77
2018-01-29T22:12:20.095Z,16.87
2018-01-29T22:14:45.848Z,21.47
2018-01-29T22:17:11.621Z,17.60
2018-01-29T22:19:37.367Z,21.53
2018-01-29T22:22:03.112Z,20.27
2018-01-29T22:24:28.896Z,20.23
2018-01-29T22:26:54.811Z,21.93
2018-01-29T22:29:20.587Z,21.60
2018-01-29T22:31:46.350Z,25.93
2018-01-29T22:34:12.122Z,18.27
2018-01-29T22:36:37.894Z,22.17
2018-01-29T22:39:03.671Z,17.57
2018-01-29T22:41:29.423Z,21.73
2018-01-29T22:43:55.225Z,18.27
2018-01-29T22:46:20.979Z,19.70
2018-01-29T22:48:46.739Z,19.90
2018-01-29T22:51:12.503Z,18.63
2018-01-29T22:53:38.271Z,20.00
2018-01-29T22:56:04.042Z,13.97
2018-01-29T22:58:29.876Z,17.40
2018-01-29T23:00:55.645Z,14.90
2018-01-29T23:03:21.424Z,18.50
2018-01-29T23:05:47.183Z,12.03
2018-01-29T23:08:13.018Z,19.80
2018-01-29T23:10:38.860Z,19.33
2018-01-29T23:13:04.660Z,15.47
2018-01-29T23:15:30.584Z,22.90
2018-01-29T23:17:56.586Z,20.63
2018-01-29T23:20:22.461Z,21.83
2018-01-29T23:22:48.324Z,11.43
2018-01-29T23:25:14.104Z,23.70
2018-01-29T23:27:39.922Z,22.23
2018-01-29T23:30:05.700Z,24.30
2018-01-29T23:32:31.523Z,16.73
2018-01-29T23:34:57.541Z,19.63
2018-01-29T23:37:23.307Z,14.55
2018-01-29T23:39:49.071Z,11.87
2018-01-29T23:42:14.885Z,10.63
2018-01-29T23:44:40.650Z,13.07
2018-01-29T23:47:06.408Z,19.50
2018-01-29T23:49:32.178Z,18.67
2018-01-29T23:51:58.039Z,17.90
2018-01-29T23:54:23.807Z,14.50
2018-01-29T23:56:49.610Z,19.33
2018-01-29T23:59:15.579Z,22.17
